createdAt,value
2018-06-05T00:00:05.449Z,85.47
2018-06-05T00:01:10.964Z,85.37
2018-06-05T00:02:16.481Z,85.66
2018-06-05T00:03:21.996Z,85.28
2018-06-05T00:04:27.532Z,85.37
2018-06-05T00:05:33.041Z,85.51
2018-06-05T00:06:38.565Z,85.85
2018-06-05T00:07:44.067Z,84.89
2018-06-05T00:08:49.581Z,85.37
2018-06-05T00:09:55.093Z,85.32
2018-06-05T00:11:00.621Z,85.13
2018-06-05T00:12:06.126Z,85.32
2018-06-05T00:13:11.667Z,85.32
2018-06-05T00:14:17.163Z,85.37
2018-06-05T00:15:22.688Z,84.84
2018-06-05T00:16:28.191Z,84.94
2018-06-05T00:17:33.714Z,84.64
2018-06-05T00:18:39.233Z,84.84
2018-06-05T00:19:44.742Z,84.55
2018-06-05T00:20:50.267Z,84.45
2018-06-05T00:21:55.779Z,84.84
2018-06-05T00:23:01.296Z,84.74
2018-06-05T00:24:06.877Z,84.84
2018-06-05T00:25:12.376Z,85.13
2018-06-05T00:26:17.863Z,84.64
2018-06-05T00:27:23.391Z,84.36
2018-06-05T00:28:28.875Z,84.17
2018-06-05T00:29:34.403Z,84.07
2018-06-05T00:30:39.909Z,84.07
2018-06-05T00:31:45.435Z,84.26
2018-06-05T00:32:50.940Z,84.17
2018-06-05T00:33:56.458Z,83.97
2018-06-05T00:35:01.976Z,84.17
2018-06-05T00:36:07.492Z,84.17
2018-06-05T00:37:13.006Z,84.07
2018-06-05T00:38:18.529Z,84.07
2018-06-05T00:39:24.047Z,83.78
2018-06-05T00:40:29.567Z,83.97
2018-06-05T00:41:35.075Z,83.87
2018-06-05T00:42:40.591Z,83.49
2018-06-05T00:43:46.106Z,83.78
2018-06-05T00:44:51.627Z,83.78
2018-06-05T00:45:57.154Z,83.59
2018-06-05T00:47:02.660Z,83.69
2018-06-05T00:48:08.174Z,83.69
2018-06-05T00:49:13.692Z,83.59
2018-06-05T00:50:19.209Z,83.49
2018-06-05T00:51:24.723Z,83.59
2018-06-05T00:52:30.388Z,83.59
2018-06-05T00:53:35.753Z,83.49
2018-06-05T00:54:41.273Z,83.20
2018-06-05T00:55:46.787Z,83.59
2018-06-05T00:56:52.305Z,83.30
2018-06-05T00:57:57.880Z,83.30
2018-06-05T00:59:03.342Z,83.40
2018-06-05T01:00:08.853Z,83.59
2018-06-05T01:01:14.372Z,83.69
2018-06-05T01:02:19.897Z,83.49
2018-06-05T01:03:25.404Z,83.40
2018-06-05T01:04:30.922Z,83.40
2018-06-05T01:05:36.438Z,83.40
2018-06-05T01:06:41.955Z,83.40
2018-06-05T01:07:47.470Z,83.30
2018-06-05T01:08:52.993Z,83.49
2018-06-05T01:09:58.506Z,83.49
2018-06-05T01:11:04.025Z,83.59
2018-06-05T01:12:09.544Z,83.30
2018-06-05T01:13:15.055Z,83.20
2018-06-05T01:14:20.574Z,82.73
2018-06-05T01:15:26.087Z,83.20
2018-06-05T01:16:31.619Z,83.69
2018-06-05T01:17:37.124Z,83.59
2018-06-05T01:18:42.638Z,83.11
2018-06-05T01:19:48.156Z,83.49
2018-06-05T01:20:53.669Z,83.30
2018-06-05T01:21:59.188Z,83.30
2018-06-05T01:23:04.702Z,83.11
2018-06-05T01:24:10.228Z,83.40
2018-06-05T01:25:15.741Z,83.11
2018-06-05T01:26:21.253Z,83.59
2018-06-05T01:27:26.771Z,83.20
2018-06-05T01:28:32.292Z,83.30
2018-06-05T01:29:37.808Z,83.20
2018-06-05T01:30:43.327Z,83.30
2018-06-05T01:31:48.837Z,83.20
2018-06-05T01:32:54.432Z,83.69
2018-06-05T01:33:59.870Z,83.30
2018-06-05T01:35:05.395Z,83.20
2018-06-05T01:36:10.903Z,83.59
2018-06-05T01:37:16.417Z,83.40
2018-06-05T01:38:21.940Z,83.49
2018-06-05T01:39:27.455Z,83.30
2018-06-05T01:40:32.975Z,83.40
2018-06-05T01:41:38.487Z,82.82
2018-06-05T01:42:44.002Z,83.40
2018-06-05T01:43:49.518Z,82.92
2018-06-05T01:44:55.044Z,82.92
2018-06-05T01:46:00.554Z,82.82
2018-06-05T01:47:06.072Z,82.63
2018-06-05T01:48:11.588Z,83.20
2018-06-05T01:49:17.103Z,83.11
2018-06-05T01:50:22.619Z,83.11
2018-06-05T01:51:28.135Z,83.30
2018-06-05T01:52:33.652Z,83.30
2018-06-05T01:53:39.176Z,82.82
2018-06-05T01:54:44.689Z,83.01
2018-06-05T01:55:50.206Z,83.01
2018-06-05T01:56:55.723Z,83.30
2018-06-05T01:58:01.244Z,83.20
2018-06-05T01:59:06.754Z,83.30
2018-06-05T02:00:12.366Z,83.49
2018-06-05T02:01:17.787Z,83.59
2018-06-05T02:02:23.302Z,83.49
2018-06-05T02:03:28.829Z,83.59
2018-06-05T02:04:34.337Z,83.20
2018-06-05T02:05:39.855Z,83.49
2018-06-05T02:06:45.368Z,83.40
2018-06-05T02:07:50.881Z,83.20
2018-06-05T02:08:56.400Z,83.30
2018-06-05T02:10:01.920Z,83.40
2018-06-05T02:11:07.443Z,83.20
2018-06-05T02:12:12.954Z,83.78
2018-06-05T02:13:18.473Z,83.69
2018-06-05T02:14:23.985Z,83.59
2018-06-05T02:15:29.506Z,83.69
2018-06-05T02:16:35.019Z,83.30
2018-06-05T02:17:40.544Z,83.69
2018-06-05T02:18:46.054Z,83.49
2018-06-05T02:19:51.572Z,83.78
2018-06-05T02:20:57.087Z,83.49
2018-06-05T02:22:02.609Z,83.49
2018-06-05T02:23:08.120Z,83.59
2018-06-05T02:24:13.636Z,83.78
2018-06-05T02:25:19.157Z,83.40
2018-06-05T02:26:24.676Z,83.69
2018-06-05T02:27:30.186Z,83.20
2018-06-05T02:28:35.702Z,83.11
2018-06-05T02:29:41.225Z,83.30
2018-06-05T02:30:46.742Z,83.59
2018-06-05T02:31:52.255Z,83.30
2018-06-05T02:32:57.769Z,83.59
2018-06-05T02:34:03.286Z,83.59
2018-06-05T02:35:08.805Z,83.69
2018-06-05T02:36:14.316Z,83.78
2018-06-05T02:37:19.842Z,83.59
2018-06-05T02:38:25.381Z,83.97
2018-06-05T02:39:30.867Z,83.78
2018-06-05T02:40:36.387Z,83.59
2018-06-05T02:41:41.905Z,84.26
2018-06-05T02:42:47.422Z,84.26
2018-06-05T02:43:52.946Z,83.69
2018-06-05T02:44:58.451Z,83.59
2018-06-05T02:46:03.969Z,84.17
2018-06-05T02:47:09.483Z,84.17
2018-06-05T02:48:15.003Z,84.36
2018-06-05T02:49:20.521Z,84.17
2018-06-05T02:50:26.037Z,84.26
2018-06-05T02:51:31.559Z,84.36
2018-06-05T02:52:37.075Z,84.26
2018-06-05T02:53:42.582Z,83.97
2018-06-05T02:54:48.111Z,84.07
2018-06-05T02:55:53.622Z,83.59
2018-06-05T02:56:59.136Z,83.78
2018-06-05T02:58:04.654Z,84.36
2018-06-05T02:59:10.170Z,84.07
2018-06-05T03:00:15.698Z,83.78
2018-06-05T03:01:21.205Z,84.26
2018-06-05T03:02:26.719Z,84.36
2018-06-05T03:03:32.241Z,83.97
2018-06-05T03:04:37.750Z,84.26
2018-06-05T03:05:43.271Z,84.26
2018-06-05T03:06:48.790Z,84.26
2018-06-05T03:07:54.298Z,83.97
2018-06-05T03:08:59.815Z,84.36
2018-06-05T03:10:05.335Z,84.26
2018-06-05T03:11:10.850Z,83.53
2018-06-05T03:12:16.368Z,83.49
2018-06-05T03:13:21.895Z,83.59
2018-06-05T03:14:27.406Z,83.63
2018-06-05T03:15:32.914Z,83.87
2018-06-05T03:16:38.434Z,83.49
2018-06-05T03:17:43.952Z,84.11
2018-06-05T03:18:49.473Z,83.83
2018-06-05T03:19:54.984Z,83.83
2018-06-05T03:21:00.500Z,83.53
2018-06-05T03:22:06.016Z,83.83
2018-06-05T03:23:11.532Z,83.83
2018-06-05T03:24:17.053Z,83.97
2018-06-05T03:25:22.571Z,83.78
2018-06-05T03:26:28.085Z,84.17
2018-06-05T03:27:33.604Z,84.11
2018-06-05T03:28:39.127Z,84.07
2018-06-05T03:29:44.633Z,83.78
2018-06-05T03:30:50.159Z,83.97
2018-06-05T03:31:55.669Z,84.07
2018-06-05T03:33:01.187Z,83.78
2018-06-05T03:34:06.721Z,84.07
2018-06-05T03:35:12.220Z,84.36
2018-06-05T03:36:17.735Z,84.17
2018-06-05T03:37:23.252Z,84.17
2018-06-05T03:38:28.773Z,84.07
2018-06-05T03:39:34.291Z,84.07
2018-06-05T03:40:39.805Z,84.17
2018-06-05T03:41:45.326Z,84.55
2018-06-05T03:42:50.840Z,84.26
2018-06-05T03:43:56.365Z,85.03
2018-06-05T03:45:01.870Z,84.50
2018-06-05T03:46:07.388Z,84.45
2018-06-05T03:47:12.902Z,84.94
2018-06-05T03:48:18.418Z,84.45
2018-06-05T03:49:23.941Z,84.94
2018-06-05T03:50:29.457Z,84.64
2018-06-05T03:51:34.970Z,84.74
2018-06-05T03:52:40.485Z,85.13
2018-06-05T03:53:46.017Z,84.94
2018-06-05T03:54:51.520Z,84.84
2018-06-05T03:55:57.034Z,85.22
2018-06-05T03:57:02.595Z,85.13
2018-06-05T03:58:08.075Z,85.51
2018-06-05T03:59:13.586Z,84.94
2018-06-05T04:00:19.108Z,85.13
2018-06-05T04:01:24.633Z,85.46
2018-06-05T04:02:30.136Z,85.27
2018-06-05T04:03:35.654Z,84.94
2018-06-05T04:04:41.177Z,85.41
2018-06-05T04:05:46.736Z,85.80
2018-06-05T04:06:52.201Z,85.61
2018-06-05T04:07:57.717Z,85.51
2018-06-05T04:09:03.243Z,85.61
2018-06-05T04:10:08.749Z,84.94
2018-06-05T04:11:14.269Z,85.22
2018-06-05T04:12:19.787Z,85.13
2018-06-05T04:13:25.303Z,85.22
2018-06-05T04:14:30.823Z,85.32
2018-06-05T04:15:36.336Z,85.71
2018-06-05T04:16:41.852Z,86.09
2018-06-05T04:17:47.368Z,85.89
2018-06-05T04:18:52.892Z,86.18
2018-06-05T04:19:58.405Z,86.28
2018-06-05T04:21:03.921Z,86.66
2018-06-05T04:22:09.434Z,86.28
2018-06-05T04:23:14.953Z,86.18
2018-06-05T04:24:20.474Z,86.47
2018-06-05T04:25:25.988Z,86.18
2018-06-05T04:26:31.508Z,86.66
2018-06-05T04:27:37.059Z,86.38
2018-06-05T04:28:42.537Z,86.38
2018-06-05T04:29:48.056Z,86.57
2018-06-05T04:30:53.571Z,87.05
2018-06-05T04:31:59.085Z,86.95
2018-06-05T04:33:04.600Z,87.15
2018-06-05T04:34:10.119Z,87.24
2018-06-05T04:35:15.644Z,87.43
2018-06-05T04:36:21.259Z,87.53
2018-06-05T04:37:26.676Z,87.53
2018-06-05T04:38:32.184Z,87.24
2018-06-05T04:39:37.700Z,88.01
2018-06-05T04:40:43.222Z,87.92
2018-06-05T04:41:48.745Z,88.39
2018-06-05T04:42:54.258Z,88.39
2018-06-05T04:43:59.771Z,87.82
2018-06-05T04:45:05.287Z,88.30
2018-06-05T04:46:10.805Z,88.59
2018-06-05T04:47:16.325Z,89.36
2018-06-05T04:48:21.834Z,89.07
2018-06-05T04:49:27.360Z,88.97
2018-06-05T04:50:32.867Z,89.83
2018-06-05T04:51:38.386Z,89.93
2018-06-05T04:52:43.909Z,89.64
2018-06-05T04:53:49.418Z,89.60
2018-06-05T04:54:54.935Z,89.50
2018-06-05T04:56:00.466Z,89.31
2018-06-05T04:57:05.966Z,88.73
2018-06-05T04:58:11.487Z,89.12
2018-06-05T04:59:17.004Z,89.31
2018-06-05T05:00:22.519Z,89.60
2018-06-05T05:01:28.035Z,89.79
2018-06-05T05:02:33.549Z,89.40
2018-06-05T05:03:39.069Z,89.40
2018-06-05T05:04:44.582Z,89.79
2018-06-05T05:05:50.144Z,89.79
2018-06-05T05:06:55.616Z,89.50
2018-06-05T05:08:01.129Z,89.69
2018-06-05T05:09:06.644Z,89.40
2018-06-05T05:10:12.165Z,89.79
2018-06-05T05:11:17.730Z,89.50
2018-06-05T05:12:23.196Z,89.89
2018-06-05T05:13:28.712Z,89.12
2018-06-05T05:14:34.233Z,89.50
2018-06-05T05:15:39.746Z,89.40
2018-06-05T05:16:45.278Z,89.40
2018-06-05T05:17:50.779Z,89.98
2018-06-05T05:18:56.291Z,89.89
2018-06-05T05:20:01.809Z,89.98
2018-06-05T05:21:07.332Z,89.89
2018-06-05T05:22:12.841Z,89.89
2018-06-05T05:23:18.407Z,89.79
2018-06-05T05:24:23.875Z,89.89
2018-06-05T05:25:29.404Z,89.79
2018-06-05T05:26:34.905Z,90.17
2018-06-05T05:27:40.424Z,89.55
2018-06-05T05:28:45.942Z,89.55
2018-06-05T05:29:51.461Z,89.60
2018-06-05T05:30:56.970Z,90.32
2018-06-05T05:32:02.485Z,89.75
2018-06-05T05:33:08.012Z,89.65
2018-06-05T05:34:13.519Z,89.55
2018-06-05T05:35:19.041Z,89.55
2018-06-05T05:36:24.558Z,89.94
2018-06-05T05:37:30.074Z,89.75
2018-06-05T05:38:35.590Z,89.36
2018-06-05T05:39:41.102Z,89.55
2018-06-05T05:40:46.616Z,89.46
2018-06-05T05:41:52.136Z,89.36
2018-06-05T05:42:57.649Z,89.46
2018-06-05T05:44:03.171Z,89.75
2018-06-05T05:45:08.688Z,89.07
2018-06-05T05:46:14.194Z,89.07
2018-06-05T05:47:19.715Z,88.88
2018-06-05T05:48:25.228Z,89.36
2018-06-05T05:49:30.748Z,89.07
2018-06-05T05:50:36.261Z,89.07
2018-06-05T05:51:41.778Z,88.49
2018-06-05T05:52:47.295Z,88.59
2018-06-05T05:53:52.807Z,87.73
2018-06-05T05:54:58.325Z,88.21
2018-06-05T05:56:03.842Z,88.31
2018-06-05T05:57:09.356Z,88.31
2018-06-05T05:58:14.876Z,87.63
2018-06-05T05:59:20.389Z,88.11
2018-06-05T06:00:25.911Z,88.40
2018-06-05T06:01:31.423Z,87.82
2018-06-05T06:02:36.935Z,88.02
2018-06-05T06:03:42.501Z,88.11
2018-06-05T06:04:47.966Z,87.92
2018-06-05T06:05:53.487Z,88.11
2018-06-05T06:06:58.999Z,88.31
2018-06-05T06:08:04.520Z,88.21
2018-06-05T06:09:10.047Z,87.63
2018-06-05T06:10:15.557Z,87.54
2018-06-05T06:11:21.194Z,87.73
2018-06-05T06:12:26.586Z,88.25
2018-06-05T06:13:32.100Z,87.82
2018-06-05T06:14:37.615Z,87.44
2018-06-05T06:15:43.133Z,87.63
2018-06-05T06:16:48.650Z,87.19
2018-06-05T06:17:54.177Z,87.49
2018-06-05T06:18:59.684Z,86.77
2018-06-05T06:20:05.198Z,86.87
2018-06-05T06:21:10.711Z,86.81
2018-06-05T06:22:16.232Z,87.10
2018-06-05T06:23:21.743Z,86.81
2018-06-05T06:24:27.255Z,87.10
2018-06-05T06:25:32.780Z,87.19
2018-06-05T06:26:38.288Z,86.52
2018-06-05T06:27:43.812Z,86.33
2018-06-05T06:28:49.324Z,86.33
2018-06-05T06:29:54.837Z,86.14
2018-06-05T06:31:00.356Z,86.33
2018-06-05T06:32:05.869Z,86.52
2018-06-05T06:33:11.384Z,86.62
2018-06-05T06:34:16.904Z,86.33
2018-06-05T06:35:22.430Z,86.05
2018-06-05T06:36:27.944Z,86.05
2018-06-05T06:37:33.456Z,86.72
2018-06-05T06:38:38.990Z,86.33
2018-06-05T06:39:44.492Z,86.52
2018-06-05T06:40:50.005Z,86.14
2018-06-05T06:41:55.523Z,86.43
2018-06-05T06:43:01.033Z,86.24
2018-06-05T06:44:06.550Z,86.14
2018-06-05T06:45:12.075Z,86.43
2018-06-05T06:46:17.581Z,86.43
2018-06-05T06:47:23.158Z,85.75
2018-06-05T06:48:28.614Z,85.57
2018-06-05T06:49:34.181Z,85.75
2018-06-05T06:50:39.645Z,85.95
2018-06-05T06:51:45.163Z,85.47
2018-06-05T06:52:50.679Z,85.57
2018-06-05T06:53:56.192Z,85.66
2018-06-05T06:55:01.711Z,85.57
2018-06-05T06:56:07.226Z,85.75
2018-06-05T06:57:12.743Z,85.57
2018-06-05T06:58:18.260Z,86.05
2018-06-05T06:59:23.784Z,85.85
2018-06-05T07:00:29.292Z,85.85
2018-06-05T07:01:34.810Z,85.66
2018-06-05T07:02:40.339Z,85.66
2018-06-05T07:03:45.845Z,85.75
2018-06-05T07:04:51.364Z,85.28
2018-06-05T07:05:56.875Z,85.37
2018-06-05T07:07:02.400Z,85.37
2018-06-05T07:08:07.907Z,85.80
2018-06-05T07:09:13.420Z,85.57
2018-06-05T07:10:18.940Z,85.47
2018-06-05T07:11:24.451Z,85.47
2018-06-05T07:12:29.972Z,85.18
2018-06-05T07:13:35.491Z,85.28
2018-06-05T07:14:41.009Z,84.89
2018-06-05T07:15:46.519Z,85.28
2018-06-05T07:16:52.093Z,84.99
2018-06-05T07:17:57.593Z,85.28
2018-06-05T07:19:03.077Z,85.37
2018-06-05T07:20:08.592Z,85.18
2018-06-05T07:21:14.105Z,85.37
2018-06-05T07:22:19.619Z,85.47
2018-06-05T07:23:25.140Z,85.18
2018-06-05T07:24:30.647Z,85.18
2018-06-05T07:25:36.166Z,85.37
2018-06-05T07:26:41.680Z,85.18
2018-06-05T07:27:47.201Z,85.08
2018-06-05T07:28:52.713Z,85.66
2018-06-05T07:29:58.229Z,85.18
2018-06-05T07:31:03.745Z,85.18
2018-06-05T07:32:09.267Z,85.28
2018-06-05T07:33:14.780Z,85.08
2018-06-05T07:34:20.305Z,85.47
2018-06-05T07:35:25.809Z,85.18
2018-06-05T07:36:31.333Z,86.05
2018-06-05T07:37:36.846Z,85.75
2018-06-05T07:38:42.362Z,85.08
2018-06-05T07:39:47.886Z,85.37
2018-06-05T07:40:53.397Z,85.66
2018-06-05T07:41:58.909Z,85.28
2018-06-05T07:43:04.435Z,85.22
2018-06-05T07:44:09.946Z,85.37
2018-06-05T07:45:15.465Z,85.51
2018-06-05T07:46:20.975Z,85.28
2018-06-05T07:47:26.497Z,85.22
2018-06-05T07:48:32.007Z,84.99
2018-06-05T07:49:37.650Z,84.70
2018-06-05T07:50:43.044Z,85.03
2018-06-05T07:51:48.551Z,84.74
2018-06-05T07:52:54.107Z,84.84
2018-06-05T07:53:59.592Z,85.03
2018-06-05T07:55:05.170Z,84.74
2018-06-05T07:56:10.629Z,85.22
2018-06-05T07:57:16.140Z,84.84
2018-06-05T07:58:21.657Z,84.84
2018-06-05T07:59:27.187Z,83.87
2018-06-05T08:00:32.694Z,83.97
2018-06-05T08:01:38.203Z,84.45
2018-06-05T08:02:43.725Z,83.97
2018-06-05T08:03:49.237Z,83.69
2018-06-05T08:04:54.759Z,84.17
2018-06-05T08:06:00.267Z,83.97
2018-06-05T08:07:05.786Z,83.97
2018-06-05T08:08:11.300Z,84.07
2018-06-05T08:09:16.816Z,84.17
2018-06-05T08:10:22.336Z,83.78
2018-06-05T08:11:27.850Z,84.36
2018-06-05T08:12:33.376Z,84.26
2018-06-05T08:13:38.885Z,83.53
2018-06-05T08:14:44.398Z,83.97
2018-06-05T08:15:49.916Z,83.73
2018-06-05T08:16:55.437Z,82.96
2018-06-05T08:18:00.953Z,83.06
2018-06-05T08:19:06.474Z,83.63
2018-06-05T08:20:11.988Z,83.44
2018-06-05T08:21:17.501Z,82.86
2018-06-05T08:22:23.032Z,83.06
2018-06-05T08:23:28.535Z,83.63
2018-06-05T08:24:34.055Z,83.34
2018-06-05T08:25:39.566Z,83.15
2018-06-05T08:26:45.084Z,83.06
2018-06-05T08:27:50.607Z,82.57
2018-06-05T08:28:56.118Z,82.96
2018-06-05T08:30:01.633Z,82.09
2018-06-05T08:31:07.147Z,82.09
2018-06-05T08:32:12.670Z,82.38
2018-06-05T08:33:18.190Z,82.29
2018-06-05T08:34:23.710Z,82.09
2018-06-05T08:35:29.224Z,82.48
2018-06-05T08:36:34.734Z,82.38
2018-06-05T08:37:40.258Z,82.09
2018-06-05T08:38:45.777Z,82.38
2018-06-05T08:39:51.295Z,81.71
2018-06-05T08:40:56.807Z,81.61
2018-06-05T08:42:02.321Z,82.09
2018-06-05T08:43:07.865Z,81.99
2018-06-05T08:44:13.352Z,81.90
2018-06-05T08:45:18.867Z,81.71
2018-06-05T08:46:24.380Z,81.99
2018-06-05T08:47:29.909Z,81.90
2018-06-05T08:48:35.416Z,81.61
2018-06-05T08:49:40.936Z,81.56
2018-06-05T08:50:46.468Z,81.75
2018-06-05T08:51:51.967Z,81.42
2018-06-05T08:52:57.481Z,81.13
2018-06-05T08:54:03.004Z,81.75
2018-06-05T08:55:08.539Z,81.65
2018-06-05T08:56:14.035Z,81.37
2018-06-05T08:57:19.552Z,81.65
2018-06-05T08:58:25.141Z,81.65
2018-06-05T08:59:30.598Z,81.65
2018-06-05T09:00:36.108Z,81.65
2018-06-05T09:01:41.629Z,81.17
2018-06-05T09:02:47.132Z,81.37
2018-06-05T09:03:52.652Z,81.37
2018-06-05T09:04:58.176Z,81.75
2018-06-05T09:06:03.685Z,81.84
2018-06-05T09:07:09.205Z,81.65
2018-06-05T09:08:14.717Z,81.84
2018-06-05T09:09:20.237Z,81.56
2018-06-05T09:10:25.766Z,81.84
2018-06-05T09:11:31.269Z,81.56
2018-06-05T09:12:36.788Z,81.75
2018-06-05T09:13:42.303Z,81.07
2018-06-05T09:14:47.818Z,81.37
2018-06-05T09:15:53.338Z,81.07
2018-06-05T09:16:58.854Z,80.88
2018-06-05T09:18:04.369Z,80.88
2018-06-05T09:19:09.891Z,81.37
2018-06-05T09:20:15.410Z,81.56
2018-06-05T09:21:20.928Z,81.46
2018-06-05T09:22:26.454Z,81.46
2018-06-05T09:23:31.964Z,81.17
2018-06-05T09:24:37.475Z,81.27
2018-06-05T09:25:42.993Z,80.88
2018-06-05T09:26:48.506Z,80.88
2018-06-05T09:27:54.023Z,81.17
2018-06-05T09:28:59.560Z,81.27
2018-06-05T09:30:05.060Z,81.46
2018-06-05T09:31:10.572Z,81.27
2018-06-05T09:32:16.093Z,81.17
2018-06-05T09:33:21.606Z,80.79
2018-06-05T09:34:27.137Z,80.50
2018-06-05T09:35:32.641Z,80.98
2018-06-05T09:36:38.158Z,80.88
2018-06-05T09:37:43.687Z,81.07
2018-06-05T09:38:49.190Z,80.88
2018-06-05T09:39:54.714Z,81.56
2018-06-05T09:41:00.237Z,81.27
2018-06-05T09:42:05.745Z,81.07
2018-06-05T09:43:11.259Z,80.98
2018-06-05T09:44:16.774Z,81.46
2018-06-05T09:45:22.293Z,81.17
2018-06-05T09:46:27.820Z,81.27
2018-06-05T09:47:33.347Z,80.98
2018-06-05T09:48:38.844Z,80.30
2018-06-05T09:49:44.364Z,80.02
2018-06-05T09:50:49.887Z,80.21
2018-06-05T09:51:55.412Z,80.30
2018-06-05T09:53:00.918Z,80.30
2018-06-05T09:54:06.437Z,80.98
2018-06-05T09:55:12.026Z,80.60
2018-06-05T09:56:17.468Z,80.30
2018-06-05T09:57:22.982Z,80.21
2018-06-05T09:58:28.586Z,80.30
2018-06-05T09:59:34.017Z,80.40
2018-06-05T10:00:39.538Z,79.92
2018-06-05T10:01:45.064Z,79.77
2018-06-05T10:02:50.574Z,79.77
2018-06-05T10:03:56.222Z,79.73
2018-06-05T10:05:01.622Z,79.44
2018-06-05T10:06:07.117Z,79.77
2018-06-05T10:07:12.640Z,79.96
2018-06-05T10:08:18.153Z,80.25
2018-06-05T10:09:23.673Z,79.77
2018-06-05T10:10:29.186Z,79.96
2018-06-05T10:11:34.702Z,80.35
2018-06-05T10:12:40.221Z,80.15
2018-06-05T10:13:45.748Z,78.90
2018-06-05T10:14:51.265Z,79.19
2018-06-05T10:15:56.776Z,79.10
2018-06-05T10:17:02.288Z,78.90
2018-06-05T10:18:07.808Z,79.77
2018-06-05T10:19:13.344Z,78.81
2018-06-05T10:20:18.871Z,79.10
2018-06-05T10:21:24.357Z,78.90
2018-06-05T10:22:29.888Z,79.67
2018-06-05T10:23:35.397Z,79.58
2018-06-05T10:24:40.918Z,79.77
2018-06-05T10:25:46.473Z,79.10
2018-06-05T10:26:51.955Z,79.10
2018-06-05T10:27:57.508Z,80.06
2018-06-05T10:29:03.027Z,79.10
2018-06-05T10:30:08.502Z,78.71
2018-06-05T10:31:14.014Z,78.90
2018-06-05T10:32:19.538Z,78.81
2018-06-05T10:33:25.061Z,78.13
2018-06-05T10:34:30.566Z,78.71
2018-06-05T10:35:36.085Z,78.75
2018-06-05T10:36:41.600Z,78.36
2018-06-05T10:37:47.117Z,78.46
2018-06-05T10:38:52.637Z,78.27
2018-06-05T10:39:58.156Z,78.65
2018-06-05T10:41:03.668Z,78.94
2018-06-05T10:42:09.194Z,78.36
2018-06-05T10:43:14.706Z,78.27
2018-06-05T10:44:20.221Z,78.08
2018-06-05T10:45:25.742Z,77.98
2018-06-05T10:46:31.262Z,77.98
2018-06-05T10:47:36.777Z,78.08
2018-06-05T10:48:42.292Z,77.88
2018-06-05T10:49:47.812Z,76.92
2018-06-05T10:50:53.325Z,76.92
2018-06-05T10:51:58.844Z,77.11
2018-06-05T10:53:04.471Z,77.01
2018-06-05T10:54:10.035Z,77.31
2018-06-05T10:55:15.397Z,77.59
2018-06-05T10:56:21.015Z,78.17
2018-06-05T10:57:26.431Z,77.21
2018-06-05T10:58:31.967Z,77.69
2018-06-05T10:59:37.466Z,77.21
2018-06-05T11:00:43.001Z,77.11
2018-06-05T11:01:48.508Z,77.31
2018-06-05T11:02:54.028Z,78.08
2018-06-05T11:03:59.542Z,77.11
2018-06-05T11:05:05.057Z,76.82
2018-06-05T11:06:10.633Z,76.63
2018-06-05T11:07:16.097Z,77.21
2018-06-05T11:08:21.611Z,77.21
2018-06-05T11:09:27.123Z,77.11
2018-06-05T11:10:32.643Z,77.21
2018-06-05T11:11:38.157Z,77.01
2018-06-05T11:12:43.735Z,76.44
2018-06-05T11:13:49.193Z,76.34
2018-06-05T11:14:54.715Z,77.11
2018-06-05T11:16:00.234Z,77.40
2018-06-05T11:17:05.753Z,77.31
2018-06-05T11:18:11.277Z,78.36
2018-06-05T11:19:16.781Z,78.08
2018-06-05T11:20:22.295Z,77.01
2018-06-05T11:21:27.815Z,77.21
2018-06-05T11:22:33.340Z,77.11
2018-06-05T11:23:38.870Z,77.01
2018-06-05T11:24:44.374Z,76.82
2018-06-05T11:25:49.991Z,77.98
2018-06-05T11:26:55.415Z,77.50
2018-06-05T11:28:00.938Z,76.82
2018-06-05T11:29:06.470Z,76.63
2018-06-05T11:30:11.975Z,77.31
2018-06-05T11:31:17.483Z,77.21
2018-06-05T11:32:22.992Z,77.11
2018-06-05T11:33:28.506Z,77.01
2018-06-05T11:34:34.025Z,77.88
2018-06-05T11:35:39.553Z,77.40
2018-06-05T11:36:45.071Z,77.11
2018-06-05T11:37:50.579Z,78.08
2018-06-05T11:38:56.109Z,77.01
2018-06-05T11:40:01.616Z,77.21
2018-06-05T11:41:07.143Z,77.11
2018-06-05T11:42:12.672Z,77.40
2018-06-05T11:43:18.172Z,77.01
2018-06-05T11:44:23.684Z,77.11
2018-06-05T11:45:29.201Z,77.11
2018-06-05T11:46:34.743Z,76.48
2018-06-05T11:47:40.236Z,76.15
2018-06-05T11:48:45.753Z,76.57
2018-06-05T11:49:51.271Z,76.48
2018-06-05T11:50:56.795Z,76.28
2018-06-05T11:52:02.304Z,76.67
2018-06-05T11:53:07.823Z,76.18
2018-06-05T11:54:13.407Z,76.18
2018-06-05T11:55:18.867Z,76.09
2018-06-05T11:56:24.380Z,76.38
2018-06-05T11:57:29.905Z,75.90
2018-06-05T11:58:35.414Z,76.38
2018-06-05T11:59:40.931Z,76.38
2018-06-05T12:00:46.510Z,75.61
2018-06-05T12:01:51.966Z,76.18
2018-06-05T12:02:57.483Z,75.90
2018-06-05T12:04:03.029Z,76.38
2018-06-05T12:05:08.527Z,75.13
2018-06-05T12:06:14.046Z,75.71
2018-06-05T12:07:19.559Z,76.18
2018-06-05T12:08:25.070Z,76.18
2018-06-05T12:09:30.586Z,75.90
2018-06-05T12:10:36.107Z,76.18
2018-06-05T12:11:41.622Z,75.90
2018-06-05T12:12:47.140Z,76.28
2018-06-05T12:13:52.655Z,75.71
2018-06-05T12:14:58.177Z,76.38
2018-06-05T12:16:03.693Z,75.42
2018-06-05T12:17:09.213Z,76.28
2018-06-05T12:18:14.733Z,75.42
2018-06-05T12:19:20.272Z,75.61
2018-06-05T12:20:25.762Z,75.32
2018-06-05T12:21:31.286Z,75.90
2018-06-05T12:22:36.808Z,76.38
2018-06-05T12:23:42.324Z,75.32
2018-06-05T12:24:47.845Z,74.55
2018-06-05T12:25:53.358Z,75.23
2018-06-05T12:26:58.873Z,75.32
2018-06-05T12:28:04.388Z,75.90
2018-06-05T12:29:09.909Z,75.71
2018-06-05T12:30:15.426Z,76.38
2018-06-05T12:31:21.021Z,75.90
2018-06-05T12:32:26.457Z,75.80
2018-06-05T12:33:31.976Z,75.80
2018-06-05T12:34:37.495Z,75.61
2018-06-05T12:35:43.015Z,75.42
2018-06-05T12:36:48.536Z,75.42
2018-06-05T12:37:54.044Z,75.61
2018-06-05T12:38:59.573Z,75.80
2018-06-05T12:40:05.085Z,75.84
2018-06-05T12:41:10.602Z,75.36
2018-06-05T12:42:16.121Z,75.36
2018-06-05T12:43:21.635Z,74.97
2018-06-05T12:44:27.164Z,74.84
2018-06-05T12:45:32.674Z,75.16
2018-06-05T12:46:38.197Z,74.88
2018-06-05T12:47:43.729Z,75.16
2018-06-05T12:48:49.248Z,74.97
2018-06-05T12:49:54.742Z,74.30
2018-06-05T12:51:00.263Z,74.10
2018-06-05T12:52:05.776Z,73.14
2018-06-05T12:53:11.295Z,74.20
2018-06-05T12:54:16.808Z,73.62
2018-06-05T12:55:22.351Z,72.56
2018-06-05T12:56:27.848Z,72.66
2018-06-05T12:57:33.368Z,72.75
2018-06-05T12:58:38.884Z,73.53
2018-06-05T12:59:44.403Z,73.91
2018-06-05T13:00:49.939Z,72.75
2018-06-05T13:01:55.449Z,72.79
2018-06-05T13:03:00.967Z,72.50
2018-06-05T13:04:06.475Z,72.66
2018-06-05T13:05:11.991Z,72.89
2018-06-05T13:06:17.506Z,72.50
2018-06-05T13:07:23.030Z,71.64
2018-06-05T13:08:28.543Z,72.02
2018-06-05T13:09:34.070Z,71.64
2018-06-05T13:10:39.581Z,71.15
2018-06-05T13:11:45.136Z,72.02
2018-06-05T13:12:50.628Z,72.21
2018-06-05T13:13:56.141Z,72.21
2018-06-05T13:15:01.652Z,72.41
2018-06-05T13:16:07.181Z,71.92
2018-06-05T13:17:12.699Z,72.60
2018-06-05T13:18:18.228Z,71.54
2018-06-05T13:19:23.725Z,71.58
2018-06-05T13:20:29.253Z,71.19
2018-06-05T13:21:34.762Z,71.48
2018-06-05T13:22:40.352Z,71.38
2018-06-05T13:23:45.804Z,71.77
2018-06-05T13:24:51.322Z,71.00
2018-06-05T13:25:56.845Z,70.51
2018-06-05T13:27:02.366Z,70.80
2018-06-05T13:28:07.884Z,70.70
2018-06-05T13:29:13.404Z,70.61
2018-06-05T13:30:18.923Z,70.32
2018-06-05T13:31:24.427Z,70.51
2018-06-05T13:32:29.947Z,71.00
2018-06-05T13:33:35.475Z,70.51
2018-06-05T13:34:40.985Z,70.90
2018-06-05T13:35:46.520Z,70.70
2018-06-05T13:36:52.020Z,69.84
2018-06-05T13:37:57.538Z,70.03
2018-06-05T13:39:03.059Z,70.26
2018-06-05T13:40:08.579Z,69.49
2018-06-05T13:41:14.102Z,69.20
2018-06-05T13:42:19.615Z,69.87
2018-06-05T13:43:25.134Z,69.10
2018-06-05T13:44:30.692Z,69.78
2018-06-05T13:45:36.175Z,68.81
2018-06-05T13:46:41.693Z,68.52
2018-06-05T13:47:47.216Z,69.58
2018-06-05T13:48:52.730Z,68.52
2018-06-05T13:49:58.259Z,69.29
2018-06-05T13:51:03.775Z,69.39
2018-06-05T13:52:09.345Z,69.29
2018-06-05T13:53:14.804Z,69.39
2018-06-05T13:54:20.323Z,69.23
2018-06-05T13:55:25.848Z,69.49
2018-06-05T13:56:31.356Z,69.58
2018-06-05T13:57:36.876Z,69.13
2018-06-05T13:58:42.395Z,68.36
2018-06-05T13:59:47.909Z,68.75
2018-06-05T14:00:53.431Z,68.55
2018-06-05T14:01:58.952Z,68.94
2018-06-05T14:03:04.475Z,69.81